createdAt,value
2022-12-23T00:01:25.552Z,89.16
2022-12-23T00:03:58.093Z,90.62
2022-12-23T00:06:26.775Z,91.12
2022-12-23T00:08:58.622Z,92.04
2022-12-23T00:11:29.746Z,92.39
2022-12-23T00:14:21.010Z,91.76
2022-12-23T00:16:50.904Z,91.75
2022-12-23T00:19:21.170Z,92.45
2022-12-23T00:21:49.864Z,92.46
2022-12-23T00:24:18.061Z,91.97
2022-12-23T00:26:46.265Z,92.41
2022-12-23T00:29:14.609Z,93.07
2022-12-23T00:31:42.838Z,92.21
2022-12-23T00:34:12.046Z,91.24
2022-12-23T00:36:41.762Z,90.87
2022-12-23T00:39:31.300Z,89.68
2022-12-23T00:42:16.778Z,88.46
2022-12-23T00:44:45.391Z,88.35
2022-12-23T00:47:36.314Z,87.98
2022-12-23T00:50:03.645Z,87.42
2022-12-23T00:52:33.306Z,87.35
2022-12-23T00:55:01.513Z,87.92
2022-12-23T00:57:29.688Z,88.49
2022-12-23T00:59:57.788Z,88.94
2022-12-23T01:02:43.468Z,88.52
2022-12-23T01:05:29.691Z,89.54
2022-12-23T01:07:59.409Z,90.31
2022-12-23T01:10:27.593Z,90.28
2022-12-23T01:12:55.993Z,90.68
2022-12-23T01:15:24.833Z,91.17
2022-12-23T01:17:53.736Z,90.75
2022-12-23T01:20:21.853Z,90.42
2022-12-23T01:22:50.304Z,90.23
2022-12-23T01:25:19.823Z,89.72
2022-12-23T01:27:48.049Z,89.48
2022-12-23T01:30:16.472Z,89.32
2022-12-23T01:32:44.737Z,89.49
2022-12-23T01:35:12.930Z,89.67
2022-12-23T01:37:41.488Z,89.33
2022-12-23T01:40:10.813Z,89.45
2022-12-23T01:42:45.096Z,89.35
2022-12-23T01:45:19.612Z,88.09
2022-12-23T01:47:53.833Z,87.47
2022-12-23T01:50:25.503Z,86.77
2022-12-23T01:53:06.966Z,85.79
2022-12-23T01:55:39.930Z,85.02
2022-12-23T01:58:14.592Z,85.53
2022-12-23T02:01:01.453Z,85.64
2022-12-23T02:03:46.341Z,85.20
2022-12-23T02:06:38.123Z,85.88
2022-12-23T02:09:18.389Z,89.48
2022-12-23T02:12:15.203Z,90.41
2022-12-23T02:15:19.521Z,91.83
2022-12-23T02:17:58.939Z,96.46
2022-12-23T02:21:11.396Z,96.59
2022-12-23T02:24:21.197Z,95.17
2022-12-23T02:27:11.392Z,92.25
2022-12-23T02:30:09.656Z,90.43
2022-12-23T02:32:54.953Z,89.56
2022-12-23T02:35:32.599Z,88.22
2022-12-23T02:38:10.537Z,88.19
2022-12-23T02:40:44.846Z,88.76
2022-12-23T02:43:19.370Z,89.23
2022-12-23T02:45:54.805Z,89.04
2022-12-23T02:48:32.372Z,90.54
2022-12-23T02:51:03.003Z,90.01
2022-12-23T02:53:35.738Z,90.23
2022-12-23T02:56:07.170Z,89.77
2022-12-23T02:58:41.616Z,89.03
2022-12-23T03:01:12.007Z,88.31
2022-12-23T03:03:43.036Z,87.16
2022-12-23T03:06:20.888Z,86.71
2022-12-23T03:08:50.950Z,86.04
2022-12-23T03:11:19.923Z,85.60
2022-12-23T03:14:16.899Z,85.66
2022-12-23T03:16:54.455Z,86.63
2022-12-23T03:19:29.315Z,87.50
2022-12-23T03:22:07.409Z,88.13
2022-12-23T03:24:42.632Z,87.59
2022-12-23T03:27:17.541Z,88.59
2022-12-23T03:29:55.996Z,89.36
2022-12-23T03:32:28.787Z,89.22
2022-12-23T03:35:01.853Z,89.50
2022-12-23T03:37:33.859Z,89.72
2022-12-23T03:40:06.257Z,90.04
2022-12-23T03:42:38.095Z,91.42
2022-12-23T03:48:07.097Z,94.04
2022-12-23T03:50:39.292Z,94.39
2022-12-23T03:53:18.747Z,93.94
2022-12-23T03:55:53.607Z,94.04
2022-12-23T03:58:40.715Z,95.04
2022-12-23T04:01:22.203Z,96.29
2022-12-23T04:04:00.228Z,96.88
2022-12-23T04:06:37.648Z,98.51
2022-12-23T04:09:06.695Z,99.56
2022-12-23T04:11:36.711Z,99.59
2022-12-23T04:14:04.850Z,98.77
2022-12-23T04:16:33.863Z,98.06
2022-12-23T04:19:02.211Z,99.09
2022-12-23T04:21:31.731Z,99.91
2022-12-23T04:23:59.905Z,99.13
2022-12-23T04:26:28.244Z,98.71
2022-12-23T04:28:56.551Z,98.18
2022-12-23T04:31:24.806Z,96.62
2022-12-23T04:33:53.208Z,95.27
2022-12-23T04:36:21.410Z,94.19
2022-12-23T04:38:51.116Z,94.19
2022-12-23T04:41:19.259Z,93.77
2022-12-23T04:43:53.092Z,93.86
2022-12-23T04:46:21.787Z,93.91
2022-12-23T04:48:49.994Z,93.58
2022-12-23T04:51:18.220Z,92.92
2022-12-23T04:53:46.428Z,92.28
2022-12-23T04:56:16.088Z,92.18
2022-12-23T04:58:44.214Z,92.17
2022-12-23T05:01:21.595Z,91.11
2022-12-23T05:03:49.692Z,90.95
2022-12-23T05:06:17.814Z,90.25
2022-12-23T05:08:45.950Z,87.35
2022-12-23T05:11:15.569Z,84.66
2022-12-23T05:13:43.951Z,84.41
2022-12-23T05:16:12.344Z,83.96
2022-12-23T05:18:40.615Z,82.40
2022-12-23T05:21:08.828Z,80.74
2022-12-23T05:23:37.062Z,80.84
2022-12-23T05:26:06.635Z,82.04
2022-12-23T05:28:36.486Z,82.78
2022-12-23T05:31:06.970Z,83.38
2022-12-23T05:33:36.267Z,83.42
2022-12-23T05:36:06.564Z,83.38
2022-12-23T05:38:34.924Z,83.48
2022-12-23T05:41:03.798Z,83.73
2022-12-23T05:43:32.295Z,84.01
2022-12-23T05:46:02.029Z,83.72
2022-12-23T05:48:30.227Z,83.62
2022-12-23T05:50:58.542Z,83.55
2022-12-23T05:53:27.084Z,83.42
2022-12-23T05:55:55.292Z,82.37
2022-12-23T05:58:24.100Z,82.10
2022-12-23T06:00:52.424Z,82.42
2022-12-23T06:03:22.281Z,81.78
2022-12-23T06:05:52.011Z,81.65
2022-12-23T06:08:20.574Z,82.04
2022-12-23T06:10:49.269Z,81.69
2022-12-23T06:13:17.484Z,81.38
2022-12-23T06:15:45.563Z,82.00
2022-12-23T06:18:13.751Z,82.04
2022-12-23T06:20:43.295Z,82.83
2022-12-23T06:23:11.437Z,84.38
2022-12-23T06:25:39.608Z,84.78
2022-12-23T06:28:08.397Z,85.09
2022-12-23T06:30:36.518Z,85.38
2022-12-23T06:33:04.819Z,84.23
2022-12-23T06:35:33.010Z,81.84
2022-12-23T06:38:03.336Z,81.50
2022-12-23T06:40:33.575Z,77.90
2022-12-23T06:43:01.666Z,76.88
2022-12-23T06:45:29.799Z,75.01
2022-12-23T06:47:57.929Z,72.98
2022-12-23T06:50:26.088Z,71.76
2022-12-23T06:52:54.164Z,70.45
2022-12-23T06:55:25.008Z,70.40
2022-12-23T06:57:53.201Z,69.66
2022-12-23T07:00:21.810Z,69.36
2022-12-23T07:02:50.096Z,68.40
2022-12-23T07:05:18.468Z,68.44
2022-12-23T07:07:46.534Z,68.46
2022-12-23T07:10:14.689Z,67.64
2022-12-23T07:12:50.399Z,67.14
2022-12-23T07:15:20.116Z,67.49
2022-12-23T07:17:48.308Z,67.19
2022-12-23T07:20:17.031Z,67.13
2022-12-23T07:22:45.237Z,67.34
2022-12-23T07:25:13.811Z,67.62
2022-12-23T07:27:43.831Z,67.70
2022-12-23T07:30:12.592Z,68.19
2022-12-23T07:32:41.889Z,69.18
2022-12-23T07:35:10.617Z,69.12
2022-12-23T07:37:38.733Z,68.17
2022-12-23T07:40:08.972Z,68.69
2022-12-23T07:42:46.595Z,67.76
2022-12-23T07:45:16.841Z,68.13
2022-12-23T07:47:45.259Z,66.58
2022-12-23T07:50:16.874Z,68.35
2022-12-23T07:52:44.977Z,69.53
2022-12-23T07:55:13.511Z,69.78
2022-12-23T07:57:42.747Z,69.94
2022-12-23T08:00:14.384Z,68.58
2022-12-23T08:02:44.280Z,71.30
2022-12-23T08:05:13.916Z,71.92
2022-12-23T08:07:42.399Z,72.88
2022-12-23T08:10:11.312Z,73.68
2022-12-23T08:12:39.492Z,74.91
2022-12-23T08:15:09.510Z,74.87
2022-12-23T08:17:37.630Z,75.01
2022-12-23T08:20:08.638Z,75.80
2022-12-23T08:22:37.041Z,76.25
2022-12-23T08:25:06.842Z,76.95
2022-12-23T08:27:35.848Z,77.11
2022-12-23T08:30:04.310Z,77.51
2022-12-23T08:32:32.424Z,77.69
2022-12-23T08:35:00.584Z,77.55
2022-12-23T08:37:30.139Z,78.25
2022-12-23T08:39:58.226Z,78.62
2022-12-23T08:42:26.603Z,78.58
2022-12-23T08:44:54.754Z,78.77
2022-12-23T08:47:23.002Z,79.31
2022-12-23T08:49:51.111Z,79.65
2022-12-23T08:52:19.227Z,80.04
2022-12-23T08:54:48.954Z,80.74
2022-12-23T08:57:17.140Z,80.72
2022-12-23T08:59:45.411Z,80.60
2022-12-23T09:02:13.966Z,80.99
2022-12-23T09:04:42.366Z,82.42
2022-12-23T09:07:10.667Z,81.68
2022-12-23T09:09:39.134Z,81.42
2022-12-23T09:12:08.882Z,81.84
2022-12-23T09:14:36.974Z,81.78
2022-12-23T09:17:05.361Z,80.79
2022-12-23T09:19:34.142Z,80.21
2022-12-23T09:22:02.367Z,79.36
2022-12-23T09:24:30.586Z,76.45
2022-12-23T09:26:58.934Z,77.73
2022-12-23T09:29:28.480Z,78.76
2022-12-23T09:31:56.603Z,79.95
2022-12-23T09:34:24.826Z,78.44
2022-12-23T09:36:55.431Z,79.69
2022-12-23T09:39:24.423Z,78.77
2022-12-23T09:42:06.461Z,79.62
2022-12-23T09:44:44.777Z,78.04
2022-12-23T09:47:16.785Z,77.38
2022-12-23T09:49:48.669Z,77.61
2022-12-23T09:52:25.310Z,77.04
2022-12-23T09:54:56.590Z,76.47
2022-12-23T09:57:32.541Z,75.10
2022-12-23T10:00:14.258Z,75.36
2022-12-23T10:03:06.738Z,76.10
2022-12-23T10:05:47.183Z,76.06
2022-12-23T10:08:22.338Z,74.91
2022-12-23T10:10:55.360Z,74.12
2022-12-23T10:13:29.853Z,70.76
2022-12-23T10:16:04.577Z,64.45
2022-12-23T10:18:43.240Z,61.61
2022-12-23T10:21:17.301Z,59.56
2022-12-23T10:23:50.642Z,58.47
2022-12-23T10:26:24.995Z,57.57
2022-12-23T10:29:01.401Z,57.11
2022-12-23T10:31:42.424Z,56.74
2022-12-23T10:34:19.889Z,56.36
2022-12-23T10:36:59.799Z,55.06
2022-12-23T10:39:38.221Z,55.69
2022-12-23T10:42:16.287Z,56.25
2022-12-23T10:45:22.400Z,56.03
2022-12-23T10:48:06.101Z,55.84
2022-12-23T10:50:48.542Z,55.59
2022-12-23T10:53:29.338Z,55.11
2022-12-23T10:55:58.541Z,54.68
2022-12-23T10:58:27.688Z,54.13
2022-12-23T11:00:58.039Z,54.12
2022-12-23T11:03:32.192Z,53.44
2022-12-23T11:06:03.695Z,53.11
2022-12-23T11:08:34.411Z,54.00
2022-12-23T11:11:02.903Z,53.75
2022-12-23T11:13:39.819Z,53.99
2022-12-23T11:16:25.188Z,53.83
2022-12-23T11:19:03.346Z,54.89
2022-12-23T11:21:34.724Z,54.98
2022-12-23T11:24:15.802Z,56.07
2022-12-23T11:26:44.621Z,56.46
2022-12-23T11:29:19.040Z,56.75
2022-12-23T11:31:47.639Z,57.52
2022-12-23T11:34:19.984Z,56.77
2022-12-23T11:36:56.497Z,56.86
2022-12-23T11:39:31.180Z,57.50
2022-12-23T11:42:07.431Z,57.26
2022-12-23T11:44:40.909Z,56.53
2022-12-23T11:47:29.348Z,55.95
2022-12-23T11:50:01.471Z,56.39
2022-12-23T11:52:32.753Z,56.41
2022-12-23T11:55:02.673Z,56.47
2022-12-23T11:57:39.458Z,56.08
2022-12-23T12:00:10.219Z,56.08
2022-12-23T12:02:42.350Z,56.61
2022-12-23T12:05:22.850Z,56.30
2022-12-23T12:07:53.427Z,56.77
2022-12-23T12:10:26.461Z,57.45
2022-12-23T12:12:58.318Z,57.75
2022-12-23T12:15:37.192Z,57.79
2022-12-23T12:18:10.117Z,57.50
2022-12-23T12:20:43.723Z,58.12
2022-12-23T12:23:19.068Z,58.71
2022-12-23T12:25:53.734Z,58.63
2022-12-23T12:28:26.157Z,59.03
2022-12-23T12:31:00.045Z,59.10
2022-12-23T12:33:35.051Z,59.36
2022-12-23T12:36:14.144Z,59.26
2022-12-23T12:38:44.452Z,59.39
2022-12-23T12:41:20.574Z,60.42
2022-12-23T12:43:54.053Z,60.94
2022-12-23T12:46:31.826Z,61.37
2022-12-23T12:49:07.242Z,62.03
2022-12-23T12:51:41.687Z,62.11
2022-12-23T12:54:20.395Z,62.61
2022-12-23T12:56:51.164Z,62.34
2022-12-23T12:59:22.826Z,62.97
2022-12-23T13:02:24.239Z,63.97
2022-12-23T13:05:12.345Z,64.28
2022-12-23T13:07:53.289Z,64.92
2022-12-23T13:10:35.230Z,64.77
2022-12-23T13:13:11.268Z,64.59
2022-12-23T13:15:49.041Z,65.03
2022-12-23T13:18:31.761Z,65.33
2022-12-23T13:21:06.995Z,65.40
2022-12-23T13:23:44.814Z,65.83
2022-12-23T13:26:24.973Z,66.21
2022-12-23T13:29:02.773Z,65.76
2022-12-23T13:31:41.791Z,66.57
2022-12-23T13:34:22.620Z,66.94
2022-12-23T13:36:59.643Z,67.09
2022-12-23T13:39:40.904Z,67.52
2022-12-23T13:42:13.627Z,68.16
2022-12-23T13:44:41.995Z,68.42
2022-12-23T13:47:20.134Z,68.68
2022-12-23T13:49:59.180Z,70.03
2022-12-23T13:52:41.633Z,70.54
2022-12-23T13:55:23.361Z,70.58
2022-12-23T13:57:58.208Z,70.88
2022-12-23T14:00:30.308Z,71.59
2022-12-23T14:03:20.198Z,71.30
2022-12-23T14:05:50.807Z,71.84
2022-12-23T14:08:42.091Z,72.29
2022-12-23T14:11:19.465Z,73.02
2022-12-23T14:13:56.282Z,72.89
2022-12-23T14:16:47.225Z,73.11
2022-12-23T14:19:42.724Z,72.64
2022-12-23T14:22:47.129Z,72.96
2022-12-23T14:25:34.586Z,73.26
2022-12-23T14:28:17.484Z,73.32
2022-12-23T14:30:46.268Z,73.41
2022-12-23T14:33:25.330Z,73.96
2022-12-23T14:36:15.993Z,74.04
2022-12-23T14:38:44.165Z,74.69
2022-12-23T14:41:26.693Z,75.10
2022-12-23T14:44:01.806Z,75.22
2022-12-23T14:46:56.663Z,76.14
2022-12-23T14:49:39.880Z,76.31
2022-12-23T14:52:44.628Z,76.34
2022-12-23T14:55:41.187Z,76.23
2022-12-23T14:58:25.918Z,76.20
2022-12-23T15:01:02.216Z,76.41
2022-12-23T15:03:35.001Z,76.64
2022-12-23T15:06:07.348Z,76.78
2022-12-23T15:08:40.383Z,77.30
2022-12-23T15:11:10.942Z,77.74
2022-12-23T15:13:39.850Z,77.91
2022-12-23T15:16:17.280Z,77.73
2022-12-23T15:18:54.944Z,77.95
2022-12-23T15:21:31.844Z,78.07
2022-12-23T15:24:00.273Z,78.49
2022-12-23T15:26:31.589Z,78.89
2022-12-23T15:29:02.352Z,79.09
2022-12-23T15:31:37.171Z,79.84
2022-12-23T15:34:16.592Z,80.31
2022-12-23T15:36:48.619Z,81.04
2022-12-23T15:39:21.198Z,80.83
2022-12-23T15:41:50.127Z,81.21
2022-12-23T15:44:21.680Z,81.12
2022-12-23T15:46:52.205Z,80.84
2022-12-23T15:49:21.903Z,80.48
2022-12-23T15:52:13.989Z,81.12
2022-12-23T15:54:47.739Z,82.15
2022-12-23T15:57:21.454Z,82.98
2022-12-23T15:59:50.422Z,84.27
2022-12-23T16:02:58.867Z,84.04
2022-12-23T16:05:32.617Z,85.01
2022-12-23T16:08:12.065Z,85.07
2022-12-23T16:10:41.331Z,86.46
2022-12-23T16:13:18.672Z,87.02
2022-12-23T16:15:47.900Z,87.25
2022-12-23T16:18:28.636Z,87.77
2022-12-23T16:21:00.680Z,87.95
2022-12-23T16:23:31.964Z,88.41
2022-12-23T16:26:02.281Z,88.34
2022-12-23T16:28:38.626Z,88.61
2022-12-23T16:31:08.942Z,88.27
2022-12-23T16:33:43.846Z,88.16
2022-12-23T16:36:23.795Z,88.31
2022-12-23T16:38:53.864Z,88.69
2022-12-23T16:41:22.152Z,89.04
2022-12-23T16:43:52.827Z,88.71
2022-12-23T16:46:23.776Z,88.68
2022-12-23T16:48:55.881Z,89.04
2022-12-23T16:51:27.393Z,90.93
2022-12-23T16:54:02.298Z,92.20
2022-12-23T16:56:37.407Z,92.71
2022-12-23T16:59:06.337Z,93.14
2022-12-23T17:01:39.535Z,92.87
2022-12-23T17:04:10.361Z,92.26
2022-12-23T17:06:41.859Z,92.51
2022-12-23T17:09:11.680Z,92.55
2022-12-23T17:11:44.682Z,93.14
2022-12-23T17:14:21.323Z,93.66
2022-12-23T17:16:50.093Z,94.00
2022-12-23T17:19:29.310Z,94.20
2022-12-23T17:22:04.151Z,93.71
2022-12-23T17:24:32.481Z,93.80
2022-12-23T17:27:00.870Z,94.15
2022-12-23T17:29:29.199Z,95.23
2022-12-23T17:31:57.921Z,95.54
2022-12-23T17:34:27.577Z,95.88
2022-12-23T17:36:55.956Z,95.86
2022-12-23T17:39:27.124Z,96.54
2022-12-23T17:41:55.524Z,97.11
2022-12-23T17:44:24.119Z,97.32
2022-12-23T17:46:52.247Z,97.11
2022-12-23T17:49:20.520Z,96.91
2022-12-23T17:51:50.479Z,97.00
2022-12-23T17:54:23.849Z,98.12
2022-12-23T17:56:52.749Z,98.65
2022-12-23T17:59:21.701Z,99.03
2022-12-23T18:01:50.299Z,98.65
2022-12-23T18:04:18.692Z,98.97
2022-12-23T18:06:46.958Z,99.51
2022-12-23T18:09:16.898Z,99.86
2022-12-23T18:11:47.355Z,99.78
2022-12-23T18:14:18.802Z,99.06
2022-12-23T18:16:47.842Z,99.54
2022-12-23T18:19:19.940Z,100.00
2022-12-23T18:21:48.548Z,98.54
2022-12-23T18:24:18.775Z,99.08
2022-12-23T18:26:47.652Z,99.77
2022-12-23T18:29:16.313Z,99.21
2022-12-23T18:31:51.627Z,97.98
2022-12-23T18:34:21.531Z,99.11
2022-12-23T18:36:51.717Z,100.00
2022-12-23T18:39:21.855Z,100.00
2022-12-23T18:41:50.243Z,100.00
2022-12-23T18:44:21.168Z,100.00
2022-12-23T18:46:50.237Z,100.00
2022-12-23T18:49:18.565Z,100.00
2022-12-23T18:51:46.944Z,100.00
2022-12-23T18:54:15.735Z,100.00
2022-12-23T18:56:45.680Z,100.00
2022-12-23T18:59:27.344Z,100.00
2022-12-23T19:01:57.481Z,100.00
2022-12-23T19:04:26.341Z,100.00
2022-12-23T19:06:55.999Z,100.00
2022-12-23T19:09:26.037Z,100.00
2022-12-23T19:11:55.567Z,100.00
2022-12-23T19:14:23.848Z,100.00
2022-12-23T19:16:52.809Z,100.00
2022-12-23T19:19:24.079Z,100.00
2022-12-23T19:21:52.913Z,100.00
2022-12-23T19:24:21.056Z,100.00
2022-12-23T19:26:49.273Z,100.00
2022-12-23T19:29:18.920Z,100.00
2022-12-23T19:31:47.083Z,100.00
2022-12-23T19:34:16.011Z,100.00
2022-12-23T19:36:44.721Z,100.00
2022-12-23T19:39:16.620Z,100.00
2022-12-23T19:41:45.621Z,100.00
2022-12-23T19:44:14.036Z,100.00
2022-12-23T19:46:43.903Z,100.00
2022-12-23T19:49:17.754Z,100.00
2022-12-23T19:51:47.935Z,100.00
2022-12-23T19:54:16.183Z,100.00
2022-12-23T19:56:44.691Z,100.00
2022-12-23T19:59:14.085Z,100.00
2022-12-23T20:01:43.769Z,100.00
2022-12-23T20:04:12.544Z,100.00
2022-12-23T20:06:41.944Z,100.00
2022-12-23T20:09:12.356Z,100.00
2022-12-23T20:11:42.639Z,100.00
2022-12-23T20:14:11.781Z,100.00
2022-12-23T20:16:41.861Z,100.00
2022-12-23T20:19:12.380Z,100.00
2022-12-23T20:21:40.454Z,100.00
2022-12-23T20:24:09.189Z,100.00
2022-12-23T20:26:37.403Z,100.00
2022-12-23T20:29:05.684Z,100.00
2022-12-23T20:31:35.599Z,100.00
2022-12-23T20:34:03.865Z,100.00
2022-12-23T20:36:35.702Z,100.00
2022-12-23T20:39:05.132Z,100.00
2022-12-23T20:41:33.945Z,100.00
2022-12-23T20:44:32.975Z,100.00
2022-12-23T20:46:50.519Z,100.00
2022-12-23T20:49:18.633Z,100.00
2022-12-23T20:51:48.214Z,100.00
2022-12-23T20:54:16.324Z,100.00
2022-12-23T20:56:44.450Z,100.00
2022-12-23T20:59:12.652Z,100.00
2022-12-23T21:01:42.770Z,100.00
2022-12-23T21:04:13.008Z,100.00
2022-12-23T21:06:41.437Z,100.00
2022-12-23T21:09:12.599Z,100.00
2022-12-23T21:11:43.592Z,100.00
2022-12-23T21:14:12.089Z,100.00
2022-12-23T21:16:40.394Z,100.00
2022-12-23T21:19:10.124Z,100.00
2022-12-23T21:21:38.234Z,100.00
2022-12-23T21:24:06.933Z,100.00
2022-12-23T21:26:36.609Z,100.00
2022-12-23T21:29:06.584Z,100.00
2022-12-23T21:31:37.332Z,100.00
2022-12-23T21:34:06.512Z,100.00
2022-12-23T21:36:37.804Z,100.00
2022-12-23T21:39:06.791Z,100.00
2022-12-23T21:41:38.894Z,100.00
2022-12-23T21:44:07.410Z,100.00
2022-12-23T21:46:35.812Z,100.00
2022-12-23T21:49:04.401Z,100.00
2022-12-23T21:51:41.928Z,100.00
2022-12-23T21:54:11.125Z,100.00
2022-12-23T21:56:41.863Z,100.00
2022-12-23T21:59:13.586Z,100.00
2022-12-23T22:01:42.305Z,100.00
2022-12-23T22:04:10.701Z,100.00
2022-12-23T22:06:41.389Z,100.00
2022-12-23T22:09:11.795Z,100.00
2022-12-23T22:11:41.431Z,100.00
2022-12-23T22:14:12.809Z,100.00
2022-12-23T22:16:40.969Z,100.00
2022-12-23T22:19:09.870Z,100.00
2022-12-23T22:21:39.776Z,100.00
2022-12-23T22:24:08.570Z,100.00
2022-12-23T22:26:37.001Z,100.00
2022-12-23T22:29:07.730Z,100.00
2022-12-23T22:31:40.090Z,100.00
2022-12-23T22:34:10.326Z,100.00
2022-12-23T22:36:38.518Z,100.00
2022-12-23T22:39:07.998Z,100.00
2022-12-23T22:41:36.713Z,100.00
2022-12-23T22:44:06.547Z,100.00
2022-12-23T22:46:34.725Z,100.00
2022-12-23T22:49:02.772Z,100.00
2022-12-23T22:51:32.591Z,100.00
2022-12-23T22:54:03.597Z,100.00
2022-12-23T22:56:31.815Z,100.00
2022-12-23T22:58:59.934Z,100.00
2022-12-23T23:01:31.812Z,100.00
2022-12-23T23:04:01.326Z,100.00
2022-12-23T23:06:31.753Z,100.00
2022-12-23T23:09:00.094Z,100.00
2022-12-23T23:11:29.045Z,100.00
2022-12-23T23:13:57.219Z,100.00
2022-12-23T23:16:26.398Z,100.00
2022-12-23T23:18:56.432Z,100.00
2022-12-23T23:21:24.600Z,100.00
2022-12-23T23:23:52.887Z,100.00
2022-12-23T23:26:21.962Z,100.00
2022-12-23T23:28:50.251Z,100.00
2022-12-23T23:34:08.016Z,100.00
2022-12-23T23:36:36.180Z,100.00
2022-12-23T23:39:04.351Z,100.00
2022-12-23T23:41:32.997Z,100.00
2022-12-23T23:44:01.124Z,100.00
2022-12-23T23:46:30.745Z,100.00
2022-12-23T23:48:58.982Z,100.00
2022-12-23T23:51:28.903Z,100.00
2022-12-23T23:53:57.153Z,100.00
2022-12-23T23:56:27.288Z,100.00
2022-12-23T23:58:57.092Z,100.00
